sensor_id;sensor_type;location;lat;lon;timestamp;temperature;humidity
57088;DHT22;42965;52.846;6.614;2023-08-21T00:01:33;15.90;99.90
57088;DHT22;42965;52.846;6.614;2023-08-21T00:03:59;15.80;99.90
57088;DHT22;42965;52.846;6.614;2023-08-21T00:06:26;15.80;99.90
57088;DHT22;42965;52.846;6.614;2023-08-21T00:08:52;15.70;99.90
57088;DHT22;42965;52.846;6.614;2023-08-21T00:11:18;15.70;99.90
57088;DHT22;42965;52.846;6.614;2023-08-21T00:13:44;15.70;99.90
57088;DHT22;42965;52.846;6.614;2023-08-21T00:16:13;15.70;99.90
57088;DHT22;42965;52.846;6.614;2023-08-21T00:18:40;15.70;99.90
57088;DHT22;42965;52.846;6.614;2023-08-21T00:21:06;15.70;99.90
57088;DHT22;42965;52.846;6.614;2023-08-21T00:23:32;15.60;99.90
57088;DHT22;42965;52.846;6.614;2023-08-21T00:25:58;15.60;99.90
57088;DHT22;42965;52.846;6.614;2023-08-21T00:28:25;15.50;99.90
57088;DHT22;42965;52.846;6.614;2023-08-21T00:30:51;15.60;99.90
57088;DHT22;42965;52.846;6.614;2023-08-21T00:33:26;15.50;99.90
57088;DHT22;42965;52.846;6.614;2023-08-21T00:35:52;15.50;99.90
57088;DHT22;42965;52.846;6.614;2023-08-21T00:38:18;15.50;99.90
57088;DHT22;42965;52.846;6.614;2023-08-21T00:40:44;15.40;99.90
57088;DHT22;42965;52.846;6.614;2023-08-21T00:43:10;15.30;99.90
57088;DHT22;42965;52.846;6.614;2023-08-21T00:45:38;15.20;99.90
57088;DHT22;42965;52.846;6.614;2023-08-21T00:48:07;15.10;99.90
57088;DHT22;42965;52.846;6.614;2023-08-21T00:50:33;15.10;99.90
57088;DHT22;42965;52.846;6.614;2023-08-21T00:53:03;15.00;99.90
57088;DHT22;42965;52.846;6.614;2023-08-21T00:55:30;15.00;99.90
57088;DHT22;42965;52.846;6.614;2023-08-21T00:57:58;15.00;99.90
57088;DHT22;42965;52.846;6.614;2023-08-21T01:00:28;15.00;99.90
57088;DHT22;42965;52.846;6.614;2023-08-21T01:02:56;15.00;99.90
57088;DHT22;42965;52.846;6.614;2023-08-21T01:05:23;15.00;99.90
57088;DHT22;42965;52.846;6.614;2023-08-21T01:08:12;15.00;99.90
57088;DHT22;42965;52.846;6.614;2023-08-21T01:13:11;15.00;99.90
57088;DHT22;42965;52.846;6.614;2023-08-21T01:15:43;15.00;99.90
57088;DHT22;42965;52.846;6.614;2023-08-21T01:18:13;15.00;99.90
57088;DHT22;42965;52.846;6.614;2023-08-21T01:20:41;15.00;99.90
57088;DHT22;42965;52.846;6.614;2023-08-21T01:23:09;14.90;99.90
57088;DHT22;42965;52.846;6.614;2023-08-21T01:25:39;15.00;99.90
57088;DHT22;42965;52.846;6.614;2023-08-21T01:28:05;14.90;99.90
57088;DHT22;42965;52.846;6.614;2023-08-21T01:30:32;14.80;99.90
57088;DHT22;42965;52.846;6.614;2023-08-21T01:33:11;14.80;99.90
57088;DHT22;42965;52.846;6.614;2023-08-21T01:35:39;14.80;99.90
57088;DHT22;42965;52.846;6.614;2023-08-21T01:38:06;14.70;99.90
57088;DHT22;42965;52.846;6.614;2023-08-21T01:40:32;14.70;99.90
57088;DHT22;42965;52.846;6.614;2023-08-21T01:43:02;14.60;99.90
57088;DHT22;42965;52.846;6.614;2023-08-21T01:45:31;14.60;99.90
57088;DHT22;42965;52.846;6.614;2023-08-21T01:47:58;14.50;99.90
57088;DHT22;42965;52.846;6.614;2023-08-21T01:50:24;14.50;99.90
57088;DHT22;42965;52.846;6.614;2023-08-21T01:52:50;14.50;99.90
57088;DHT22;42965;52.846;6.614;2023-08-21T01:55:17;14.40;99.90
57088;DHT22;42965;52.846;6.614;2023-08-21T01:57:44;14.40;99.90
57088;DHT22;42965;52.846;6.614;2023-08-21T02:00:12;14.40;99.90
57088;DHT22;42965;52.846;6.614;2023-08-21T02:02:41;14.40;99.90
57088;DHT22;42965;52.846;6.614;2023-08-21T02:05:07;14.40;99.90
57088;DHT22;42965;52.846;6.614;2023-08-21T02:07:36;14.40;99.90
57088;DHT22;42965;52.846;6.614;2023-08-21T02:10:02;14.40;99.90
57088;DHT22;42965;52.846;6.614;2023-08-21T02:12:28;14.40;99.90
57088;DHT22;42965;52.846;6.614;2023-08-21T02:14:59;14.40;99.90
57088;DHT22;42965;52.846;6.614;2023-08-21T02:17:26;14.30;99.90
57088;DHT22;42965;52.846;6.614;2023-08-21T02:19:53;14.30;99.90
57088;DHT22;42965;52.846;6.614;2023-08-21T02:22:19;14.20;99.90
57088;DHT22;42965;52.846;6.614;2023-08-21T02:24:45;14.10;99.90
57088;DHT22;42965;52.846;6.614;2023-08-21T02:27:11;14.10;99.90
57088;DHT22;42965;52.846;6.614;2023-08-21T02:29:39;14.10;99.90
57088;DHT22;42965;52.846;6.614;2023-08-21T02:32:05;14.00;99.90
57088;DHT22;42965;52.846;6.614;2023-08-21T02:34:31;14.00;99.90
57088;DHT22;42965;52.846;6.614;2023-08-21T02:36:58;14.00;99.90
57088;DHT22;42965;52.846;6.614;2023-08-21T02:39:28;14.00;99.90
57088;DHT22;42965;52.846;6.614;2023-08-21T02:41:54;14.00;99.90
57088;DHT22;42965;52.846;6.614;2023-08-21T02:44:21;13.90;99.90
57088;DHT22;42965;52.846;6.614;2023-08-21T02:46:47;14.00;99.90
57088;DHT22;42965;52.846;6.614;2023-08-21T02:49:13;14.00;99.90
57088;DHT22;42965;52.846;6.614;2023-08-21T02:51:40;14.00;99.90
57088;DHT22;42965;52.846;6.614;2023-08-21T02:54:06;14.00;99.90
57088;DHT22;42965;52.846;6.614;2023-08-21T02:56:33;14.00;99.90
57088;DHT22;42965;52.846;6.614;2023-08-21T02:59:00;14.00;99.90
57088;DHT22;42965;52.846;6.614;2023-08-21T03:01:27;14.00;99.90
57088;DHT22;42965;52.846;6.614;2023-08-21T03:03:53;14.00;99.90
57088;DHT22;42965;52.846;6.614;2023-08-21T03:06:20;14.00;99.90
57088;DHT22;42965;52.846;6.614;2023-08-21T03:08:46;14.00;99.90
57088;DHT22;42965;52.846;6.614;2023-08-21T03:11:12;14.00;99.90
57088;DHT22;42965;52.846;6.614;2023-08-21T03:13:38;13.90;99.90
57088;DHT22;42965;52.846;6.614;2023-08-21T03:16:05;13.80;99.90
57088;DHT22;42965;52.846;6.614;2023-08-21T03:18:32;13.60;99.90
57088;DHT22;42965;52.846;6.614;2023-08-21T03:20:58;13.50;99.90
57088;DHT22;42965;52.846;6.614;2023-08-21T03:23:24;13.50;99.90
57088;DHT22;42965;52.846;6.614;2023-08-21T03:25:54;13.30;99.90
57088;DHT22;42965;52.846;6.614;2023-08-21T03:28:20;13.30;99.90
57088;DHT22;42965;52.846;6.614;2023-08-21T03:30:46;13.30;99.90
57088;DHT22;42965;52.846;6.614;2023-08-21T03:33:13;13.30;99.90
57088;DHT22;42965;52.846;6.614;2023-08-21T03:35:39;13.30;99.90
57088;DHT22;42965;52.846;6.614;2023-08-21T03:38:06;13.30;99.90
57088;DHT22;42965;52.846;6.614;2023-08-21T03:40:40;13.30;99.90
57088;DHT22;42965;52.846;6.614;2023-08-21T03:43:07;13.40;99.90
57088;DHT22;42965;52.846;6.614;2023-08-21T03:45:33;13.40;99.90
57088;DHT22;42965;52.846;6.614;2023-08-21T03:48:00;13.40;99.90
57088;DHT22;42965;52.846;6.614;2023-08-21T03:50:26;13.40;99.90
57088;DHT22;42965;52.846;6.614;2023-08-21T03:52:52;13.40;99.90
57088;DHT22;42965;52.846;6.614;2023-08-21T03:55:18;13.40;99.90
57088;DHT22;42965;52.846;6.614;2023-08-21T03:57:44;13.40;99.90
57088;DHT22;42965;52.846;6.614;2023-08-21T04:00:12;13.40;99.90
57088;DHT22;42965;52.846;6.614;2023-08-21T04:02:45;13.30;99.90
57088;DHT22;42965;52.846;6.614;2023-08-21T04:05:12;13.30;99.90
57088;DHT22;42965;52.846;6.614;2023-08-21T04:07:38;13.30;99.90
57088;DHT22;42965;52.846;6.614;2023-08-21T04:10:05;13.30;99.90
57088;DHT22;42965;52.846;6.614;2023-08-21T04:12:31;13.30;99.90
57088;DHT22;42965;52.846;6.614;2023-08-21T04:14:58;13.20;99.90
57088;DHT22;42965;52.846;6.614;2023-08-21T04:17:24;13.20;99.90
57088;DHT22;42965;52.846;6.614;2023-08-21T04:19:50;13.20;99.90
57088;DHT22;42965;52.846;6.614;2023-08-21T04:22:17;13.20;99.90
57088;DHT22;42965;52.846;6.614;2023-08-21T04:24:44;13.20;99.90
57088;DHT22;42965;52.846;6.614;2023-08-21T04:27:10;13.20;99.90
57088;DHT22;42965;52.846;6.614;2023-08-21T04:29:38;13.20;99.90
57088;DHT22;42965;52.846;6.614;2023-08-21T04:32:05;13.20;99.90
57088;DHT22;42965;52.846;6.614;2023-08-21T04:34:32;13.30;99.90
57088;DHT22;42965;52.846;6.614;2023-08-21T04:37:02;13.30;99.90
57088;DHT22;42965;52.846;6.614;2023-08-21T04:39:31;13.30;99.90
57088;DHT22;42965;52.846;6.614;2023-08-21T04:41:58;13.30;99.90
57088;DHT22;42965;52.846;6.614;2023-08-21T04:44:24;13.20;99.90
57088;DHT22;42965;52.846;6.614;2023-08-21T04:46:50;13.20;99.90
57088;DHT22;42965;52.846;6.614;2023-08-21T04:49:17;13.20;99.90
57088;DHT22;42965;52.846;6.614;2023-08-21T04:51:43;13.20;99.90
57088;DHT22;42965;52.846;6.614;2023-08-21T04:54:10;13.20;99.90
57088;DHT22;42965;52.846;6.614;2023-08-21T04:56:36;13.20;99.90
57088;DHT22;42965;52.846;6.614;2023-08-21T04:59:02;13.30;99.90
57088;DHT22;42965;52.846;6.614;2023-08-21T05:01:31;13.30;99.90
57088;DHT22;42965;52.846;6.614;2023-08-21T05:03:59;13.40;99.90
57088;DHT22;42965;52.846;6.614;2023-08-21T05:06:26;13.30;99.90
57088;DHT22;42965;52.846;6.614;2023-08-21T05:08:52;13.40;99.90
57088;DHT22;42965;52.846;6.614;2023-08-21T05:11:19;13.30;99.90
57088;DHT22;42965;52.846;6.614;2023-08-21T05:13:46;13.30;99.90
57088;DHT22;42965;52.846;6.614;2023-08-21T05:16:14;13.30;99.90
57088;DHT22;42965;52.846;6.614;2023-08-21T05:18:41;13.30;99.90
57088;DHT22;42965;52.846;6.614;2023-08-21T05:21:07;13.40;99.90
57088;DHT22;42965;52.846;6.614;2023-08-21T05:23:33;13.40;99.90
57088;DHT22;42965;52.846;6.614;2023-08-21T05:26:04;13.50;99.90
57088;DHT22;42965;52.846;6.614;2023-08-21T05:28:30;13.50;99.90
57088;DHT22;42965;52.846;6.614;2023-08-21T05:30:57;13.60;99.90
57088;DHT22;42965;52.846;6.614;2023-08-21T05:33:24;13.60;99.90
57088;DHT22;42965;52.846;6.614;2023-08-21T05:35:50;13.80;99.90
57088;DHT22;42965;52.846;6.614;2023-08-21T05:38:17;14.00;99.90
57088;DHT22;42965;52.846;6.614;2023-08-21T05:40:44;14.10;99.90
57088;DHT22;42965;52.846;6.614;2023-08-21T05:43:10;14.20;99.90
57088;DHT22;42965;52.846;6.614;2023-08-21T05:45:40;14.40;99.90
57088;DHT22;42965;52.846;6.614;2023-08-21T05:48:06;14.50;99.90
57088;DHT22;42965;52.846;6.614;2023-08-21T05:50:32;14.80;99.90
57088;DHT22;42965;52.846;6.614;2023-08-21T05:53:05;15.00;99.90
57088;DHT22;42965;52.846;6.614;2023-08-21T05:55:32;15.20;99.90
57088;DHT22;42965;52.846;6.614;2023-08-21T05:58:00;15.40;99.90
57088;DHT22;42965;52.846;6.614;2023-08-21T06:00:26;15.50;99.90
57088;DHT22;42965;52.846;6.614;2023-08-21T06:02:53;15.70;99.90
57088;DHT22;42965;52.846;6.614;2023-08-21T06:05:38;15.60;99.90
57088;DHT22;42965;52.846;6.614;2023-08-21T06:08:05;15.90;99.90
57088;DHT22;42965;52.846;6.614;2023-08-21T06:10:31;16.10;99.90
57088;DHT22;42965;52.846;6.614;2023-08-21T06:12:58;16.20;99.90
57088;DHT22;42965;52.846;6.614;2023-08-21T06:15:27;16.20;99.90
57088;DHT22;42965;52.846;6.614;2023-08-21T06:17:53;16.40;99.90
57088;DHT22;42965;52.846;6.614;2023-08-21T06:20:20;16.50;99.90
57088;DHT22;42965;52.846;6.614;2023-08-21T06:22:46;16.80;99.90
57088;DHT22;42965;52.846;6.614;2023-08-21T06:25:12;17.00;99.90
57088;DHT22;42965;52.846;6.614;2023-08-21T06:27:39;17.30;99.90
57088;DHT22;42965;52.846;6.614;2023-08-21T06:30:07;17.40;99.90
57088;DHT22;42965;52.846;6.614;2023-08-21T06:32:34;17.60;99.90
57088;DHT22;42965;52.846;6.614;2023-08-21T06:35:00;17.90;99.90
57088;DHT22;42965;52.846;6.614;2023-08-21T06:37:26;18.00;99.90
57088;DHT22;42965;52.846;6.614;2023-08-21T06:39:52;18.30;99.90
57088;DHT22;42965;52.846;6.614;2023-08-21T06:42:19;18.50;99.90
57088;DHT22;42965;52.846;6.614;2023-08-21T06:44:49;18.80;99.90
57088;DHT22;42965;52.846;6.614;2023-08-21T06:47:16;19.00;99.90
57088;DHT22;42965;52.846;6.614;2023-08-21T06:49:43;19.20;99.90
57088;DHT22;42965;52.846;6.614;2023-08-21T06:52:09;19.40;99.90
57088;DHT22;42965;52.846;6.614;2023-08-21T06:54:35;19.60;99.90
57088;DHT22;42965;52.846;6.614;2023-08-21T06:57:02;19.90;99.90
57088;DHT22;42965;52.846;6.614;2023-08-21T06:59:29;20.20;99.90
57088;DHT22;42965;52.846;6.614;2023-08-21T07:02:05;20.40;99.90
57088;DHT22;42965;52.846;6.614;2023-08-21T07:04:32;20.70;99.90
57088;DHT22;42965;52.846;6.614;2023-08-21T07:07:08;21.00;99.90
57088;DHT22;42965;52.846;6.614;2023-08-21T07:09:34;21.30;99.90
57088;DHT22;42965;52.846;6.614;2023-08-21T07:12:00;21.70;99.90
57088;DHT22;42965;52.846;6.614;2023-08-21T07:14:27;22.10;99.90
57088;DHT22;42965;52.846;6.614;2023-08-21T07:16:54;22.20;99.90
57088;DHT22;42965;52.846;6.614;2023-08-21T07:19:20;22.30;99.90
57088;DHT22;42965;52.846;6.614;2023-08-21T07:21:46;22.50;99.90
57088;DHT22;42965;52.846;6.614;2023-08-21T07:24:12;22.70;99.90
57088;DHT22;42965;52.846;6.614;2023-08-21T07:26:38;23.00;99.90
57088;DHT22;42965;52.846;6.614;2023-08-21T07:29:04;23.20;99.90
57088;DHT22;42965;52.846;6.614;2023-08-21T07:31:31;23.50;99.90
57088;DHT22;42965;52.846;6.614;2023-08-21T07:33:58;23.80;99.90
57088;DHT22;42965;52.846;6.614;2023-08-21T07:36:24;24.10;99.90
57088;DHT22;42965;52.846;6.614;2023-08-21T07:38:50;24.30;99.90
57088;DHT22;42965;52.846;6.614;2023-08-21T07:41:16;24.40;99.90
57088;DHT22;42965;52.846;6.614;2023-08-21T07:43:43;24.50;99.90
57088;DHT22;42965;52.846;6.614;2023-08-21T07:46:16;24.80;99.90
57088;DHT22;42965;52.846;6.614;2023-08-21T07:48:45;24.80;99.90
57088;DHT22;42965;52.846;6.614;2023-08-21T07:51:11;25.20;99.90
57088;DHT22;42965;52.846;6.614;2023-08-21T07:53:37;25.30;99.90
57088;DHT22;42965;52.846;6.614;2023-08-21T07:56:04;25.50;99.90
57088;DHT22;42965;52.846;6.614;2023-08-21T07:58:31;25.80;99.90
57088;DHT22;42965;52.846;6.614;2023-08-21T08:00:58;25.90;99.90
57088;DHT22;42965;52.846;6.614;2023-08-21T08:03:24;26.00;99.90
57088;DHT22;42965;52.846;6.614;2023-08-21T08:05:51;26.10;99.90
57088;DHT22;42965;52.846;6.614;2023-08-21T08:08:18;26.40;99.90
57088;DHT22;42965;52.846;6.614;2023-08-21T08:10:44;26.40;99.90
57088;DHT22;42965;52.846;6.614;2023-08-21T08:13:10;26.40;99.90
57088;DHT22;42965;52.846;6.614;2023-08-21T08:15:37;26.50;99.90
57088;DHT22;42965;52.846;6.614;2023-08-21T08:18:04;27.10;99.90
57088;DHT22;42965;52.846;6.614;2023-08-21T08:20:31;27.20;99.90
57088;DHT22;42965;52.846;6.614;2023-08-21T08:22:57;27.40;99.90
57088;DHT22;42965;52.846;6.614;2023-08-21T08:25:23;27.50;99.90
57088;DHT22;42965;52.846;6.614;2023-08-21T08:27:51;27.90;99.90
57088;DHT22;42965;52.846;6.614;2023-08-21T08:30:17;28.00;99.90
57088;DHT22;42965;52.846;6.614;2023-08-21T08:32:44;28.30;99.90
57088;DHT22;42965;52.846;6.614;2023-08-21T08:35:13;28.20;99.90
57088;DHT22;42965;52.846;6.614;2023-08-21T08:37:41;28.40;98.60
57088;DHT22;42965;52.846;6.614;2023-08-21T08:40:08;28.70;98.00
57088;DHT22;42965;52.846;6.614;2023-08-21T08:42:35;28.60;96.70
57088;DHT22;42965;52.846;6.614;2023-08-21T08:45:03;29.00;94.80
57088;DHT22;42965;52.846;6.614;2023-08-21T08:47:50;28.90;93.90
57088;DHT22;42965;52.846;6.614;2023-08-21T08:50:17;29.00;93.10
57088;DHT22;42965;52.846;6.614;2023-08-21T08:52:44;29.30;91.80
57088;DHT22;42965;52.846;6.614;2023-08-21T08:55:10;29.20;91.50
57088;DHT22;42965;52.846;6.614;2023-08-21T08:57:37;29.40;91.40
57088;DHT22;42965;52.846;6.614;2023-08-21T09:00:04;29.40;90.90
57088;DHT22;42965;52.846;6.614;2023-08-21T09:02:33;29.60;88.60
57088;DHT22;42965;52.846;6.614;2023-08-21T09:05:03;29.60;90.00
57088;DHT22;42965;52.846;6.614;2023-08-21T09:07:31;29.60;86.50
57088;DHT22;42965;52.846;6.614;2023-08-21T09:09:57;30.10;87.10
57088;DHT22;42965;52.846;6.614;2023-08-21T09:12:23;30.30;86.60
57088;DHT22;42965;52.846;6.614;2023-08-21T09:14:50;30.30;83.10
57088;DHT22;42965;52.846;6.614;2023-08-21T09:17:16;30.80;82.00
57088;DHT22;42965;52.846;6.614;2023-08-21T09:19:46;30.60;79.80
57088;DHT22;42965;52.846;6.614;2023-08-21T09:22:15;30.70;79.60
57088;DHT22;42965;52.846;6.614;2023-08-21T09:25:01;30.90;76.90
57088;DHT22;42965;52.846;6.614;2023-08-21T09:27:38;31.00;70.30
57088;DHT22;42965;52.846;6.614;2023-08-21T09:30:05;31.00;69.60
57088;DHT22;42965;52.846;6.614;2023-08-21T09:32:54;30.80;72.20
57088;DHT22;42965;52.846;6.614;2023-08-21T09:35:23;31.00;70.10
57088;DHT22;42965;52.846;6.614;2023-08-21T09:37:50;31.20;70.10
57088;DHT22;42965;52.846;6.614;2023-08-21T09:40:20;31.40;69.50
57088;DHT22;42965;52.846;6.614;2023-08-21T09:42:52;31.10;68.80
57088;DHT22;42965;52.846;6.614;2023-08-21T09:45:23;31.40;66.50
57088;DHT22;42965;52.846;6.614;2023-08-21T09:47:51;31.60;67.70
57088;DHT22;42965;52.846;6.614;2023-08-21T09:50:18;31.50;67.90
57088;DHT22;42965;52.846;6.614;2023-08-21T09:52:46;31.60;67.70
57088;DHT22;42965;52.846;6.614;2023-08-21T09:55:32;31.80;64.60
57088;DHT22;42965;52.846;6.614;2023-08-21T09:58:00;31.80;63.40
57088;DHT22;42965;52.846;6.614;2023-08-21T10:00:31;31.80;63.90
57088;DHT22;42965;52.846;6.614;2023-08-21T10:03:01;31.90;63.00
57088;DHT22;42965;52.846;6.614;2023-08-21T10:05:37;31.80;60.50
57088;DHT22;42965;52.846;6.614;2023-08-21T10:08:05;32.10;59.00
57088;DHT22;42965;52.846;6.614;2023-08-21T10:10:34;31.80;61.20
57088;DHT22;42965;52.846;6.614;2023-08-21T10:13:01;32.20;60.30
57088;DHT22;42965;52.846;6.614;2023-08-21T10:15:29;32.70;61.00
57088;DHT22;42965;52.846;6.614;2023-08-21T10:17:56;32.60;62.10
57088;DHT22;42965;52.846;6.614;2023-08-21T10:20:24;32.90;61.30
57088;DHT22;42965;52.846;6.614;2023-08-21T10:22:53;33.20;59.70
57088;DHT22;42965;52.846;6.614;2023-08-21T10:25:25;33.30;60.40
57088;DHT22;42965;52.846;6.614;2023-08-21T10:27:54;33.30;58.00
57088;DHT22;42965;52.846;6.614;2023-08-21T10:30:24;33.40;57.20
57088;DHT22;42965;52.846;6.614;2023-08-21T10:32:56;33.40;57.90
57088;DHT22;42965;52.846;6.614;2023-08-21T10:35:31;33.50;58.70
57088;DHT22;42965;52.846;6.614;2023-08-21T10:38:10;33.40;55.70
57088;DHT22;42965;52.846;6.614;2023-08-21T10:40:39;33.40;54.70
57088;DHT22;42965;52.846;6.614;2023-08-21T10:43:38;33.40;55.30
57088;DHT22;42965;52.846;6.614;2023-08-21T10:46:06;33.40;53.60
57088;DHT22;42965;52.846;6.614;2023-08-21T10:48:32;33.30;55.00
57088;DHT22;42965;52.846;6.614;2023-08-21T10:51:02;33.20;54.10
57088;DHT22;42965;52.846;6.614;2023-08-21T10:53:29;33.40;54.10
57088;DHT22;42965;52.846;6.614;2023-08-21T10:55:57;33.40;55.00
57088;DHT22;42965;52.846;6.614;2023-08-21T10:58:26;33.80;54.30
57088;DHT22;42965;52.846;6.614;2023-08-21T11:00:59;33.50;54.60
57088;DHT22;42965;52.846;6.614;2023-08-21T11:03:31;33.50;54.20
57088;DHT22;42965;52.846;6.614;2023-08-21T11:06:09;33.50;55.00
57088;DHT22;42965;52.846;6.614;2023-08-21T11:08:36;33.80;53.80
57088;DHT22;42965;52.846;6.614;2023-08-21T11:11:04;34.10;52.80
57088;DHT22;42965;52.846;6.614;2023-08-21T11:13:31;34.00;52.90
57088;DHT22;42965;52.846;6.614;2023-08-21T11:15:59;34.10;52.70
57088;DHT22;42965;52.846;6.614;2023-08-21T11:18:34;33.50;53.40
57088;DHT22;42965;52.846;6.614;2023-08-21T11:21:08;33.70;52.50
57088;DHT22;42965;52.846;6.614;2023-08-21T11:23:40;33.80;53.60
57088;DHT22;42965;52.846;6.614;2023-08-21T11:26:09;33.80;53.20
57088;DHT22;42965;52.846;6.614;2023-08-21T11:28:36;33.90;52.30
57088;DHT22;42965;52.846;6.614;2023-08-21T11:31:03;33.80;53.50
57088;DHT22;42965;52.846;6.614;2023-08-21T11:33:31;34.20;53.40
57088;DHT22;42965;52.846;6.614;2023-08-21T11:35:59;34.40;51.60
57088;DHT22;42965;52.846;6.614;2023-08-21T11:38:27;34.60;52.60
57088;DHT22;42965;52.846;6.614;2023-08-21T11:41:05;34.80;53.00
57088;DHT22;42965;52.846;6.614;2023-08-21T11:43:40;35.10;51.30
57088;DHT22;42965;52.846;6.614;2023-08-21T11:46:08;34.80;49.90
57088;DHT22;42965;52.846;6.614;2023-08-21T11:48:40;35.00;49.70
57088;DHT22;42965;52.846;6.614;2023-08-21T11:51:07;35.10;50.10
57088;DHT22;42965;52.846;6.614;2023-08-21T11:53:41;34.00;51.00
57088;DHT22;42965;52.846;6.614;2023-08-21T11:56:15;33.60;50.70
57088;DHT22;42965;52.846;6.614;2023-08-21T11:58:43;32.60;50.10
57088;DHT22;42965;52.846;6.614;2023-08-21T12:01:19;32.50;51.00
57088;DHT22;42965;52.846;6.614;2023-08-21T12:03:46;33.20;50.50
57088;DHT22;42965;52.846;6.614;2023-08-21T12:06:12;33.20;49.80
57088;DHT22;42965;52.846;6.614;2023-08-21T12:08:39;33.10;49.20
57088;DHT22;42965;52.846;6.614;2023-08-21T12:11:06;33.50;49.60
57088;DHT22;42965;52.846;6.614;2023-08-21T12:13:33;33.50;49.70
57088;DHT22;42965;52.846;6.614;2023-08-21T12:16:00;33.70;49.10
57088;DHT22;42965;52.846;6.614;2023-08-21T12:18:26;33.80;49.10
57088;DHT22;42965;52.846;6.614;2023-08-21T12:20:52;33.20;48.40
57088;DHT22;42965;52.846;6.614;2023-08-21T12:23:18;32.40;50.20
57088;DHT22;42965;52.846;6.614;2023-08-21T12:25:45;31.70;51.80
57088;DHT22;42965;52.846;6.614;2023-08-21T12:28:12;31.10;52.90
57088;DHT22;42965;52.846;6.614;2023-08-21T12:30:38;31.90;53.60
57088;DHT22;42965;52.846;6.614;2023-08-21T12:33:04;32.00;53.00
57088;DHT22;42965;52.846;6.614;2023-08-21T12:35:30;32.50;52.80
57088;DHT22;42965;52.846;6.614;2023-08-21T12:37:57;32.90;51.60
57088;DHT22;42965;52.846;6.614;2023-08-21T12:40:24;33.50;51.30
57088;DHT22;42965;52.846;6.614;2023-08-21T12:42:50;33.90;51.50
57088;DHT22;42965;52.846;6.614;2023-08-21T12:45:17;34.00;51.00
57088;DHT22;42965;52.846;6.614;2023-08-21T12:47:43;33.90;50.10
57088;DHT22;42965;52.846;6.614;2023-08-21T12:50:10;33.70;50.30
57088;DHT22;42965;52.846;6.614;2023-08-21T12:52:36;33.00;50.40
57088;DHT22;42965;52.846;6.614;2023-08-21T12:55:02;32.90;51.40
57088;DHT22;42965;52.846;6.614;2023-08-21T12:57:32;33.40;50.80
57088;DHT22;42965;52.846;6.614;2023-08-21T12:59:58;33.70;50.70
57088;DHT22;42965;52.846;6.614;2023-08-21T13:02:25;34.20;49.40
57088;DHT22;42965;52.846;6.614;2023-08-21T13:04:53;34.00;49.90
57088;DHT22;42965;52.846;6.614;2023-08-21T13:07:19;33.00;50.40
57088;DHT22;42965;52.846;6.614;2023-08-21T13:09:46;32.20;51.50
57088;DHT22;42965;52.846;6.614;2023-08-21T13:12:12;31.60;51.90
57088;DHT22;42965;52.846;6.614;2023-08-21T13:14:38;31.10;51.60
57088;DHT22;42965;52.846;6.614;2023-08-21T13:17:05;30.90;53.20
57088;DHT22;42965;52.846;6.614;2023-08-21T13:19:31;30.70;53.00
57088;DHT22;42965;52.846;6.614;2023-08-21T13:21:57;30.40;53.40
57088;DHT22;42965;52.846;6.614;2023-08-21T13:24:24;30.50;53.00
57088;DHT22;42965;52.846;6.614;2023-08-21T13:26:51;31.50;51.50
57088;DHT22;42965;52.846;6.614;2023-08-21T13:29:17;32.60;51.30
57088;DHT22;42965;52.846;6.614;2023-08-21T13:31:44;33.30;49.80
57088;DHT22;42965;52.846;6.614;2023-08-21T13:34:10;33.80;49.10
57088;DHT22;42965;52.846;6.614;2023-08-21T13:36:38;34.10;47.80
57088;DHT22;42965;52.846;6.614;2023-08-21T13:39:04;34.40;46.30
57088;DHT22;42965;52.846;6.614;2023-08-21T13:41:32;34.40;45.80
57088;DHT22;42965;52.846;6.614;2023-08-21T13:43:58;34.80;45.90
57088;DHT22;42965;52.846;6.614;2023-08-21T13:46:24;34.90;45.70
57088;DHT22;42965;52.846;6.614;2023-08-21T13:48:50;35.00;45.30
57088;DHT22;42965;52.846;6.614;2023-08-21T13:51:16;34.70;44.60
57088;DHT22;42965;52.846;6.614;2023-08-21T13:53:43;35.30;44.80
57088;DHT22;42965;52.846;6.614;2023-08-21T13:56:09;35.40;44.20
57088;DHT22;42965;52.846;6.614;2023-08-21T13:58:35;35.20;43.20
57088;DHT22;42965;52.846;6.614;2023-08-21T14:01:01;35.80;43.30
57088;DHT22;42965;52.846;6.614;2023-08-21T14:03:27;36.00;43.00
57088;DHT22;42965;52.846;6.614;2023-08-21T14:05:54;35.60;42.40
57088;DHT22;42965;52.846;6.614;2023-08-21T14:08:20;34.30;43.20
57088;DHT22;42965;52.846;6.614;2023-08-21T14:10:47;33.60;44.50
57088;DHT22;42965;52.846;6.614;2023-08-21T14:13:13;33.90;44.80
57088;DHT22;42965;52.846;6.614;2023-08-21T14:15:39;34.20;44.00
57088;DHT22;42965;52.846;6.614;2023-08-21T14:18:06;34.90;44.40
57088;DHT22;42965;52.846;6.614;2023-08-21T14:20:32;35.00;43.50
57088;DHT22;42965;52.846;6.614;2023-08-21T14:22:58;35.20;43.80
57088;DHT22;42965;52.846;6.614;2023-08-21T14:25:27;34.40;44.80
57088;DHT22;42965;52.846;6.614;2023-08-21T14:27:57;34.50;45.10
57088;DHT22;42965;52.846;6.614;2023-08-21T14:30:23;34.60;45.00
57088;DHT22;42965;52.846;6.614;2023-08-21T14:32:50;34.50;45.90
57088;DHT22;42965;52.846;6.614;2023-08-21T14:35:16;34.00;46.40
57088;DHT22;42965;52.846;6.614;2023-08-21T14:37:42;33.30;46.60
57088;DHT22;42965;52.846;6.614;2023-08-21T14:40:09;32.40;47.60
57088;DHT22;42965;52.846;6.614;2023-08-21T14:42:36;31.40;49.20
57088;DHT22;42965;52.846;6.614;2023-08-21T14:45:03;30.70;50.40
57088;DHT22;42965;52.846;6.614;2023-08-21T14:47:29;30.30;51.10
57088;DHT22;42965;52.846;6.614;2023-08-21T14:49:56;30.90;50.90
57088;DHT22;42965;52.846;6.614;2023-08-21T14:52:23;31.70;50.20
57088;DHT22;42965;52.846;6.614;2023-08-21T14:54:53;32.60;49.20
57088;DHT22;42965;52.846;6.614;2023-08-21T14:57:19;33.40;48.60
57088;DHT22;42965;52.846;6.614;2023-08-21T14:59:46;33.20;48.70
57088;DHT22;42965;52.846;6.614;2023-08-21T15:02:13;33.20;48.40
57088;DHT22;42965;52.846;6.614;2023-08-21T15:04:39;33.50;48.40
57088;DHT22;42965;52.846;6.614;2023-08-21T15:07:05;33.40;48.10
57088;DHT22;42965;52.846;6.614;2023-08-21T15:09:31;33.40;47.90
57088;DHT22;42965;52.846;6.614;2023-08-21T15:12:00;33.20;48.20
57088;DHT22;42965;52.846;6.614;2023-08-21T15:14:35;33.40;48.20
57088;DHT22;42965;52.846;6.614;2023-08-21T15:17:02;33.10;48.00
57088;DHT22;42965;52.846;6.614;2023-08-21T15:19:28;33.30;48.00
57088;DHT22;42965;52.846;6.614;2023-08-21T15:21:55;33.10;47.90
57088;DHT22;42965;52.846;6.614;2023-08-21T15:24:21;32.90;48.50
57088;DHT22;42965;52.846;6.614;2023-08-21T15:26:48;32.40;48.90
57088;DHT22;42965;52.846;6.614;2023-08-21T15:29:14;31.90;49.90
57088;DHT22;42965;52.846;6.614;2023-08-21T15:31:40;31.40;50.60
57088;DHT22;42965;52.846;6.614;2023-08-21T15:34:06;31.20;51.90
57088;DHT22;42965;52.846;6.614;2023-08-21T15:36:33;30.90;51.70